Time;durP1;ratioP1;P1;durP2;ratioP2;P2;SDS_P1;SDS_P2;PMS_P1;PMS_P2;Temp;Humidity;BMP_temperature;BMP_pressure;BME280_temperature;BME280_humidity;BME280_pressure;Samples;Min_cycle;Max_cycle;Signal;HPM_P1;HPM_P2
2022/06/30 00:01:52;;;;;;;;;;;25.10;99.90;;;;;;5098367;28;20052;-71
2022/06/30 00:04:18;;;;;;;;;;;25.10;99.90;;;;;;5106826;28;20209;-71
2022/06/30 00:06:45;;;;;;;;;;;25.20;99.90;;;;;;5097953;28;20358;-71
2022/06/30 00:09:11;;;;;;;;;;;25.10;99.90;;;;;;5099791;28;20419;-70
2022/06/30 00:11:38;;;;;;;;;;;25.00;99.90;;;;;;5098602;28;20280;-71
2022/06/30 00:14:05;;;;;;;;;;;24.90;99.90;;;;;;5103207;28;21905;-72
2022/06/30 00:16:30;;;;;;;;;;;25.00;99.90;;;;;;5101210;28;19920;-71
2022/06/30 00:18:57;;;;;;;;;;;25.00;99.90;;;;;;5103096;28;19913;-71
2022/06/30 00:21:26;;;;;;;;;;;25.10;99.90;;;;;;5106386;28;19994;-72
2022/06/30 00:23:52;;;;;;;;;;;25.10;99.90;;;;;;5103137;28;20301;-72
2022/06/30 00:26:18;;;;;;;;;;;25.10;99.90;;;;;;5104572;28;19934;-71
2022/06/30 00:28:43;;;;;;;;;;;25.10;99.90;;;;;;5095909;28;20054;-71
2022/06/30 00:31:09;;;;;;;;;;;25.10;99.90;;;;;;5099893;28;19923;-70
2022/06/30 00:33:35;;;;;;;;;;;25.10;99.90;;;;;;5097730;28;19960;-70
2022/06/30 00:36:00;;;;;;;;;;;25.00;99.90;;;;;;5094693;28;19930;-72
2022/06/30 00:38:26;;;;;;;;;;;25.10;99.90;;;;;;5098137;28;19908;-71
2022/06/30 00:40:51;;;;;;;;;;;25.00;99.90;;;;;;5103792;28;19908;-71
2022/06/30 00:43:17;;;;;;;;;;;24.80;99.90;;;;;;5104609;28;19923;-71
2022/06/30 00:45:44;;;;;;;;;;;24.80;99.90;;;;;;5107139;28;19908;-71
2022/06/30 00:48:10;;;;;;;;;;;24.70;99.90;;;;;;5102859;28;20345;-72
2022/06/30 00:50:36;;;;;;;;;;;24.70;99.90;;;;;;5097556;28;19916;-71
2022/06/30 00:53:03;;;;;;;;;;;24.70;99.90;;;;;;5100877;28;19912;-70
2022/06/30 00:55:29;;;;;;;;;;;24.80;99.90;;;;;;5105634;28;19912;-70
2022/06/30 00:57:56;;;;;;;;;;;24.80;99.90;;;;;;5095285;28;19969;-70
2022/06/30 01:00:22;;;;;;;;;;;24.80;99.90;;;;;;5100745;28;20365;-71
2022/06/30 01:02:47;;;;;;;;;;;24.80;99.90;;;;;;5101402;28;20006;-71
2022/06/30 01:05:13;;;;;;;;;;;24.80;99.90;;;;;;5099339;28;20334;-71
2022/06/30 01:07:39;;;;;;;;;;;24.80;99.90;;;;;;5099724;28;19907;-72
2022/06/30 01:12:49;;;;;;;;;;;24.80;99.90;;;;;;5095462;28;20503;-71
2022/06/30 01:15:16;;;;;;;;;;;24.80;99.90;;;;;;5095034;28;19912;-70
2022/06/30 01:17:42;;;;;;;;;;;24.80;99.90;;;;;;5099083;28;19907;-70
2022/06/30 01:20:07;;;;;;;;;;;24.90;99.90;;;;;;5096008;28;20419;-70
2022/06/30 01:22:33;;;;;;;;;;;24.80;99.90;;;;;;5098750;28;19912;-71
2022/06/30 01:24:59;;;;;;;;;;;24.80;99.90;;;;;;5102599;28;19979;-71
2022/06/30 01:27:24;;;;;;;;;;;24.80;99.90;;;;;;5103493;28;19915;-70
2022/06/30 01:29:53;;;;;;;;;;;24.80;99.90;;;;;;5098473;28;19912;-70
2022/06/30 01:32:19;;;;;;;;;;;24.80;99.90;;;;;;5098046;28;20342;-71
2022/06/30 01:34:44;;;;;;;;;;;24.80;99.90;;;;;;5102420;28;19951;-71
2022/06/30 01:37:10;;;;;;;;;;;24.80;99.90;;;;;;5101526;28;20334;-71
2022/06/30 01:39:36;;;;;;;;;;;24.70;99.90;;;;;;5099853;28;20250;-72
2022/06/30 01:42:02;;;;;;;;;;;24.70;99.90;;;;;;5105825;28;20358;-73
2022/06/30 01:44:28;;;;;;;;;;;24.70;99.90;;;;;;5105383;28;19912;-71
2022/06/30 01:46:55;;;;;;;;;;;24.70;99.90;;;;;;5102702;28;19983;-71
2022/06/30 01:49:21;;;;;;;;;;;24.70;99.90;;;;;;5102695;28;20050;-71
2022/06/30 01:51:47;;;;;;;;;;;24.60;99.90;;;;;;5100367;28;19950;-72
2022/06/30 01:54:12;;;;;;;;;;;24.60;99.90;;;;;;5097705;28;20022;-71
2022/06/30 01:56:38;;;;;;;;;;;24.60;99.90;;;;;;5102584;28;19994;-71
2022/06/30 01:59:05;;;;;;;;;;;24.60;99.90;;;;;;5106662;28;19926;-70
2022/06/30 02:01:30;;;;;;;;;;;24.60;99.90;;;;;;5100813;28;22091;-71
2022/06/30 02:03:56;;;;;;;;;;;24.60;99.90;;;;;;5101582;28;19916;-71
2022/06/30 02:06:22;;;;;;;;;;;24.60;99.90;;;;;;5099074;28;19943;-71
2022/06/30 02:08:47;;;;;;;;;;;24.60;99.90;;;;;;5098897;28;19911;-71
2022/06/30 02:11:13;;;;;;;;;;;24.60;99.90;;;;;;5100967;28;19922;-70
2022/06/30 02:13:38;;;;;;;;;;;24.60;99.90;;;;;;5100196;28;19993;-71
2022/06/30 02:16:04;;;;;;;;;;;24.60;99.90;;;;;;5103516;28;20262;-71
2022/06/30 02:18:30;;;;;;;;;;;24.60;99.90;;;;;;5107383;28;19907;-70
2022/06/30 02:20:57;;;;;;;;;;;24.60;99.90;;;;;;5105187;28;20349;-70
2022/06/30 02:23:23;;;;;;;;;;;24.60;99.90;;;;;;5100375;28;19915;-71
2022/06/30 02:25:48;;;;;;;;;;;24.60;99.90;;;;;;5107217;27;19907;-71
2022/06/30 02:28:14;;;;;;;;;;;24.60;99.90;;;;;;5098851;28;19907;-70
2022/06/30 02:30:39;;;;;;;;;;;24.60;99.90;;;;;;5100467;28;20348;-71
2022/06/30 02:33:05;;;;;;;;;;;24.60;99.90;;;;;;5104602;28;19912;-71
2022/06/30 02:35:31;;;;;;;;;;;24.60;99.90;;;;;;5098375;28;19912;-70
2022/06/30 02:37:57;;;;;;;;;;;24.50;99.90;;;;;;5101282;28;19911;-70
2022/06/30 02:40:23;;;;;;;;;;;24.50;99.90;;;;;;5099320;28;19947;-71
2022/06/30 02:42:48;;;;;;;;;;;24.40;99.90;;;;;;5098789;28;20482;-72
2022/06/30 02:45:14;;;;;;;;;;;24.30;99.90;;;;;;5100577;28;19945;-71
2022/06/30 02:47:41;;;;;;;;;;;24.30;99.90;;;;;;5100804;28;20341;-72
2022/06/30 02:50:08;;;;;;;;;;;24.30;99.90;;;;;;5105080;28;20342;-71
2022/06/30 02:52:35;;;;;;;;;;;24.30;99.90;;;;;;5105452;28;20014;-71
2022/06/30 02:55:02;;;;;;;;;;;24.30;99.90;;;;;;5102899;28;20018;-70
2022/06/30 02:57:28;;;;;;;;;;;24.20;99.90;;;;;;5112491;28;20294;-70
2022/06/30 02:59:54;;;;;;;;;;;24.20;99.90;;;;;;5101907;28;20273;-71
2022/06/30 03:02:20;;;;;;;;;;;24.20;99.90;;;;;;5105386;28;19912;-72
2022/06/30 03:04:46;;;;;;;;;;;24.10;99.90;;;;;;5097574;28;19908;-72
2022/06/30 03:07:11;;;;;;;;;;;24.10;99.90;;;;;;5097157;28;19919;-70
2022/06/30 03:09:37;;;;;;;;;;;24.20;99.90;;;;;;5106921;28;19908;-71
2022/06/30 03:12:03;;;;;;;;;;;24.10;99.90;;;;;;5106161;28;20014;-70
2022/06/30 03:14:28;;;;;;;;;;;24.20;99.90;;;;;;5099994;28;19916;-71
2022/06/30 03:16:54;;;;;;;;;;;24.30;99.90;;;;;;5100925;28;19955;-71
2022/06/30 03:19:20;;;;;;;;;;;24.30;99.90;;;;;;5102851;28;19908;-71
2022/06/30 03:21:46;;;;;;;;;;;24.40;99.90;;;;;;5112552;28;19904;-72
2022/06/30 03:24:11;;;;;;;;;;;24.40;99.90;;;;;;5114575;28;19904;-73
2022/06/30 03:26:37;;;;;;;;;;;24.50;99.90;;;;;;5114220;28;20348;-72
2022/06/30 03:29:04;;;;;;;;;;;24.40;99.90;;;;;;5110364;28;19910;-71
2022/06/30 03:31:34;;;;;;;;;;;24.40;99.90;;;;;;5096378;28;19908;-74
2022/06/30 03:34:02;;;;;;;;;;;24.40;99.90;;;;;;5105840;28;19908;-74
2022/06/30 03:36:30;;;;;;;;;;;24.50;99.90;;;;;;5107273;28;19958;-71
2022/06/30 03:38:56;;;;;;;;;;;24.60;99.90;;;;;;5110750;28;20367;-71
2022/06/30 03:41:22;;;;;;;;;;;24.70;99.90;;;;;;5116568;28;20325;-71
2022/06/30 03:43:50;;;;;;;;;;;24.70;99.90;;;;;;5118330;28;19912;-71
2022/06/30 03:46:16;;;;;;;;;;;24.80;99.90;;;;;;5118354;28;19903;-71
2022/06/30 03:48:42;;;;;;;;;;;24.70;99.90;;;;;;5118253;28;19915;-71
2022/06/30 03:51:09;;;;;;;;;;;24.70;99.90;;;;;;5116587;28;19912;-70
2022/06/30 03:53:35;;;;;;;;;;;24.60;99.90;;;;;;5115628;28;19904;-71
2022/06/30 03:56:01;;;;;;;;;;;24.60;99.90;;;;;;5115394;28;20280;-71
2022/06/30 03:58:26;;;;;;;;;;;24.60;99.90;;;;;;5112589;28;19904;-71
2022/06/30 04:00:52;;;;;;;;;;;24.60;99.90;;;;;;5111341;28;19910;-71
2022/06/30 04:03:17;;;;;;;;;;;24.60;99.90;;;;;;5112218;28;19952;-70
2022/06/30 04:05:43;;;;;;;;;;;24.60;99.90;;;;;;5113188;28;19918;-71
2022/06/30 04:08:08;;;;;;;;;;;24.80;99.90;;;;;;5110422;28;19968;-72
2022/06/30 04:10:34;;;;;;;;;;;24.90;99.90;;;;;;5108172;28;19907;-72
2022/06/30 04:13:00;;;;;;;;;;;25.10;99.90;;;;;;5106972;28;20534;-72
2022/06/30 04:15:27;;;;;;;;;;;25.20;99.90;;;;;;5108299;28;19904;-72
2022/06/30 04:17:52;;;;;;;;;;;25.20;99.90;;;;;;5112618;28;19904;-71
2022/06/30 04:20:18;;;;;;;;;;;25.30;99.90;;;;;;5106207;28;19908;-71
2022/06/30 04:22:45;;;;;;;;;;;25.30;99.90;;;;;;5097061;28;19916;-74
2022/06/30 04:25:11;;;;;;;;;;;25.20;99.90;;;;;;5097513;28;19956;-75
2022/06/30 04:27:40;;;;;;;;;;;25.20;99.90;;;;;;5097285;28;20388;-75
2022/06/30 04:30:05;;;;;;;;;;;25.20;99.90;;;;;;5097562;28;19912;-75
2022/06/30 04:32:37;;;;;;;;;;;25.10;99.90;;;;;;5097645;28;19926;-73
2022/06/30 04:35:03;;;;;;;;;;;25.10;99.90;;;;;;5096027;28;19943;-68
2022/06/30 04:37:29;;;;;;;;;;;25.20;99.90;;;;;;5100833;28;20199;-69
2022/06/30 04:41:23;;;;;;;;;;;25.30;99.90;;;;;;5105120;28;19938;-70
2022/06/30 04:42:40;;;;;;;;;;;25.40;99.90;;;;;;5105656;28;19908;-70
2022/06/30 04:45:06;;;;;;;;;;;25.50;99.90;;;;;;5109496;28;19922;-69
2022/06/30 04:47:33;;;;;;;;;;;25.60;99.90;;;;;;5101643;28;19904;-69
2022/06/30 04:49:59;;;;;;;;;;;25.60;99.90;;;;;;5091513;28;19993;-69
2022/06/30 04:52:24;;;;;;;;;;;25.50;99.90;;;;;;5102514;28;19973;-70
2022/06/30 04:54:50;;;;;;;;;;;25.60;99.90;;;;;;5110265;28;19911;-70
2022/06/30 04:57:15;;;;;;;;;;;25.60;99.90;;;;;;5111819;28;20431;-70
2022/06/30 04:59:41;;;;;;;;;;;25.60;99.90;;;;;;5111467;28;19903;-70
2022/06/30 05:02:07;;;;;;;;;;;25.60;99.90;;;;;;5109419;28;19999;-71
2022/06/30 05:04:32;;;;;;;;;;;25.70;99.90;;;;;;5101504;28;19904;-70
2022/06/30 05:06:58;;;;;;;;;;;25.70;99.90;;;;;;5092145;28;19912;-69
2022/06/30 05:09:23;;;;;;;;;;;25.80;99.90;;;;;;5118053;27;19914;-71
2022/06/30 05:11:54;;;;;;;;;;;25.80;99.90;;;;;;5106134;27;19989;-71
2022/06/30 05:14:19;;;;;;;;;;;26.00;99.90;;;;;;5108139;28;19955;-70
2022/06/30 05:16:45;;;;;;;;;;;26.10;99.90;;;;;;5112696;27;19915;-69
2022/06/30 05:19:10;;;;;;;;;;;26.30;99.90;;;;;;5105693;28;19937;-69
2022/06/30 05:21:36;;;;;;;;;;;26.50;99.90;;;;;;5112487;27;19907;-70
2022/06/30 05:26:46;;;;;;;;;;;26.50;99.90;;;;;;5119010;28;19923;-72
2022/06/30 05:29:11;;;;;;;;;;;26.60;99.90;;;;;;5117783;28;19904;-70
2022/06/30 05:31:37;;;;;;;;;;;26.60;99.90;;;;;;5116089;28;19933;-73
2022/06/30 05:34:03;;;;;;;;;;;26.40;99.90;;;;;;5106904;28;20006;-70
2022/06/30 05:36:28;;;;;;;;;;;26.50;99.90;;;;;;5107170;28;20000;-69
2022/06/30 05:38:54;;;;;;;;;;;26.60;99.90;;;;;;5101799;28;19918;-70
2022/06/30 05:41:19;;;;;;;;;;;26.60;99.90;;;;;;5110238;28;19903;-69
2022/06/30 05:43:45;;;;;;;;;;;26.80;99.90;;;;;;5102952;28;20068;-70
2022/06/30 05:46:11;;;;;;;;;;;26.90;99.90;;;;;;5110743;28;20307;-68
2022/06/30 05:48:36;;;;;;;;;;;26.90;99.90;;;;;;5105898;28;20361;-68
2022/06/30 05:51:02;;;;;;;;;;;26.90;99.90;;;;;;5110641;28;19912;-68
2022/06/30 05:53:28;;;;;;;;;;;26.90;99.90;;;;;;5110426;28;19918;-68
2022/06/30 05:55:53;;;;;;;;;;;26.90;99.90;;;;;;5108693;28;19908;-67
2022/06/30 05:58:19;;;;;;;;;;;27.00;99.90;;;;;;5107861;28;20379;-67
2022/06/30 06:00:44;;;;;;;;;;;26.90;99.90;;;;;;5108674;28;19908;-60
2022/06/30 06:03:10;;;;;;;;;;;26.90;99.90;;;;;;5105714;28;19974;-61
2022/06/30 06:05:36;;;;;;;;;;;27.00;99.90;;;;;;5106268;28;19908;-60
2022/06/30 06:08:08;;;;;;;;;;;27.20;99.90;;;;;;5106983;28;19995;-62
2022/06/30 06:10:33;;;;;;;;;;;27.30;99.90;;;;;;5103277;28;19915;-61
2022/06/30 06:12:59;;;;;;;;;;;27.60;99.90;;;;;;5096254;28;20265;-62
2022/06/30 06:15:25;;;;;;;;;;;27.60;99.90;;;;;;5104483;28;19908;-60
2022/06/30 06:17:50;;;;;;;;;;;27.50;99.90;;;;;;5109725;28;19955;-61
2022/06/30 06:20:17;;;;;;;;;;;27.60;99.90;;;;;;5105455;28;19998;-60
2022/06/30 06:22:43;;;;;;;;;;;27.50;99.90;;;;;;5107064;28;19908;-63
2022/06/30 06:25:09;;;;;;;;;;;27.30;99.90;;;;;;5107692;28;19946;-62
2022/06/30 06:27:35;;;;;;;;;;;27.10;99.90;;;;;;5093448;28;19908;-62
2022/06/30 06:30:03;;;;;;;;;;;27.00;99.90;;;;;;5104780;28;20369;-62
2022/06/30 06:32:28;;;;;;;;;;;27.00;99.90;;;;;;5101732;28;20281;-62
2022/06/30 06:34:54;;;;;;;;;;;26.90;99.90;;;;;;5115400;28;19918;-62
2022/06/30 06:37:19;;;;;;;;;;;27.10;99.90;;;;;;5110914;28;19907;-62
2022/06/30 06:39:45;;;;;;;;;;;27.50;99.90;;;;;;5104791;28;20657;-62
2022/06/30 06:42:11;;;;;;;;;;;27.80;99.90;;;;;;5103928;28;19907;-62
2022/06/30 06:44:36;;;;;;;;;;;28.00;99.90;;;;;;5110344;28;19964;-60
2022/06/30 06:47:04;;;;;;;;;;;28.20;99.90;;;;;;5103334;28;20454;-63
2022/06/30 06:49:30;;;;;;;;;;;28.20;99.90;;;;;;5106006;28;19908;-60
2022/06/30 06:51:56;;;;;;;;;;;28.30;99.90;;;;;;5106408;28;19922;-61
2022/06/30 06:54:21;;;;;;;;;;;28.40;99.90;;;;;;5110334;28;19994;-59
2022/06/30 06:56:47;;;;;;;;;;;28.60;99.90;;;;;;5106373;28;19908;-61
2022/06/30 06:59:12;;;;;;;;;;;28.70;99.90;;;;;;5110481;28;19903;-62
2022/06/30 07:01:38;;;;;;;;;;;28.60;99.90;;;;;;5114035;28;19920;-61
2022/06/30 07:04:04;;;;;;;;;;;28.50;99.90;;;;;;5114841;28;19904;-61
2022/06/30 07:06:29;;;;;;;;;;;28.40;99.90;;;;;;5115615;28;19903;-63
2022/06/30 07:08:55;;;;;;;;;;;28.50;99.90;;;;;;5114933;28;19963;-63
2022/06/30 07:11:21;;;;;;;;;;;28.50;99.90;;;;;;5113547;28;19912;-61
2022/06/30 07:13:46;;;;;;;;;;;28.50;99.90;;;;;;5111772;28;19907;-63
2022/06/30 07:16:12;;;;;;;;;;;28.60;99.90;;;;;;5114546;27;19929;-63
2022/06/30 07:18:38;;;;;;;;;;;28.80;99.90;;;;;;5114410;28;19903;-62
2022/06/30 07:21:03;;;;;;;;;;;28.90;99.90;;;;;;5114339;28;19904;-62
2022/06/30 07:23:29;;;;;;;;;;;28.90;99.90;;;;;;5106358;28;19908;-61
2022/06/30 07:25:55;;;;;;;;;;;28.80;99.90;;;;;;5112232;28;19911;-62
2022/06/30 07:28:20;;;;;;;;;;;28.90;99.90;;;;;;5112454;28;19911;-61
2022/06/30 07:30:46;;;;;;;;;;;28.60;99.90;;;;;;5115070;28;19904;-64
2022/06/30 07:33:11;;;;;;;;;;;28.20;99.90;;;;;;5115276;28;19908;-68
2022/06/30 07:35:37;;;;;;;;;;;27.90;99.90;;;;;;5114382;28;20377;-69
2022/06/30 07:38:02;;;;;;;;;;;27.70;99.90;;;;;;5112878;28;19938;-68
2022/06/30 07:40:28;;;;;;;;;;;27.60;99.90;;;;;;5112398;28;20014;-67
2022/06/30 07:42:55;;;;;;;;;;;27.70;99.90;;;;;;5109660;28;20313;-67
2022/06/30 07:45:21;;;;;;;;;;;27.70;99.90;;;;;;5110070;28;20289;-68
2022/06/30 07:47:48;;;;;;;;;;;27.70;99.90;;;;;;5112368;28;19904;-68
2022/06/30 07:50:14;;;;;;;;;;;27.70;99.90;;;;;;5113996;28;19998;-69
2022/06/30 07:52:40;;;;;;;;;;;27.60;99.90;;;;;;5110449;28;20045;-67
2022/06/30 07:55:06;;;;;;;;;;;27.50;99.90;;;;;;5112301;28;20037;-68
2022/06/30 07:57:35;;;;;;;;;;;27.40;99.90;;;;;;5112141;28;19904;-69
2022/06/30 08:00:01;;;;;;;;;;;27.40;99.90;;;;;;5110071;28;19908;-68
2022/06/30 08:02:26;;;;;;;;;;;27.40;99.90;;;;;;5109931;28;19929;-68
2022/06/30 08:04:52;;;;;;;;;;;27.40;99.90;;;;;;5113019;28;19923;-68
2022/06/30 08:07:18;;;;;;;;;;;27.40;99.90;;;;;;5112098;28;19939;-67
2022/06/30 08:09:43;;;;;;;;;;;27.40;99.90;;;;;;5113277;28;19903;-67
2022/06/30 08:12:09;;;;;;;;;;;27.50;99.90;;;;;;5111040;28;19933;-68
2022/06/30 08:14:34;;;;;;;;;;;27.40;99.90;;;;;;5109366;28;19907;-70
2022/06/30 08:17:01;;;;;;;;;;;27.50;99.90;;;;;;5113049;28;19929;-68
2022/06/30 08:19:26;;;;;;;;;;;27.50;99.90;;;;;;5112913;28;19904;-68
2022/06/30 08:21:52;;;;;;;;;;;27.60;99.90;;;;;;5113110;28;19915;-67
2022/06/30 08:24:18;;;;;;;;;;;27.60;99.90;;;;;;5105665;28;19911;-66
2022/06/30 08:26:43;;;;;;;;;;;27.70;99.90;;;;;;5112127;27;20036;-67
2022/06/30 08:29:11;;;;;;;;;;;27.60;99.90;;;;;;5107429;28;19907;-66
2022/06/30 08:31:37;;;;;;;;;;;27.70;99.90;;;;;;5112852;28;19908;-68
2022/06/30 08:34:02;;;;;;;;;;;27.70;99.90;;;;;;5111180;28;19911;-65
2022/06/30 08:36:28;;;;;;;;;;;27.70;99.90;;;;;;5111741;28;19939;-67
2022/06/30 08:38:54;;;;;;;;;;;27.80;99.90;;;;;;5110481;28;19994;-66
2022/06/30 08:44:04;;;;;;;;;;;28.10;99.90;;;;;;5109741;28;20380;-67
2022/06/30 08:46:30;;;;;;;;;;;28.20;99.90;;;;;;5112497;28;19904;-68
2022/06/30 08:48:57;;;;;;;;;;;28.40;99.90;;;;;;5108123;28;19915;-68
2022/06/30 08:51:24;;;;;;;;;;;28.40;99.90;;;;;;5112863;28;19907;-66
2022/06/30 08:53:55;;;;;;;;;;;28.40;99.90;;;;;;5112882;28;19956;-66
2022/06/30 08:56:22;;;;;;;;;;;28.40;99.90;;;;;;5113247;28;19904;-68
2022/06/30 08:58:49;;;;;;;;;;;28.20;99.90;;;;;;5112930;28;20333;-69
2022/06/30 09:01:14;;;;;;;;;;;28.10;99.90;;;;;;5110297;28;19908;-66
2022/06/30 09:03:41;;;;;;;;;;;28.10;99.90;;;;;;5112653;28;19908;-67
2022/06/30 09:06:06;;;;;;;;;;;28.10;99.90;;;;;;5112126;28;19968;-68
2022/06/30 09:08:32;;;;;;;;;;;28.10;99.90;;;;;;5113652;28;19903;-67
2022/06/30 09:10:58;;;;;;;;;;;27.90;99.90;;;;;;5108953;28;19907;-64
2022/06/30 09:13:24;;;;;;;;;;;27.90;99.90;;;;;;5112514;28;19911;-64
2022/06/30 09:15:50;;;;;;;;;;;28.00;99.90;;;;;;5113317;28;19904;-64
2022/06/30 09:18:23;;;;;;;;;;;28.00;99.90;;;;;;5111374;28;19904;-63
2022/06/30 09:20:49;;;;;;;;;;;28.00;99.90;;;;;;5112955;28;19919;-63
2022/06/30 09:23:35;;;;;;;;;;;27.90;99.90;;;;;;5104634;28;19908;-63
2022/06/30 09:26:01;;;;;;;;;;;27.90;99.90;;;;;;5104686;28;20439;-62
2022/06/30 09:28:47;;;;;;;;;;;28.00;99.90;;;;;;5107395;28;19922;-62
2022/06/30 09:31:15;;;;;;;;;;;28.10;99.90;;;;;;5107986;28;19911;-63
2022/06/30 09:33:44;;;;;;;;;;;28.00;99.90;;;;;;5110979;28;19954;-64
2022/06/30 09:36:22;;;;;;;;;;;28.00;99.90;;;;;;5112787;28;19918;-62
2022/06/30 09:39:00;;;;;;;;;;;28.10;99.90;;;;;;5109957;28;20040;-63
2022/06/30 09:41:29;;;;;;;;;;;28.10;99.90;;;;;;5113230;28;19957;-63
2022/06/30 09:43:56;;;;;;;;;;;28.30;99.90;;;;;;5109350;28;19908;-64
2022/06/30 09:46:21;;;;;;;;;;;28.20;99.90;;;;;;5108559;28;20326;-63
2022/06/30 09:48:47;;;;;;;;;;;28.10;99.90;;;;;;5106358;28;19967;-64
2022/06/30 09:51:13;;;;;;;;;;;28.10;99.90;;;;;;5109549;27;20402;-65
2022/06/30 09:53:39;;;;;;;;;;;28.20;99.90;;;;;;5100922;28;19904;-64
2022/06/30 09:56:12;;;;;;;;;;;28.30;99.90;;;;;;5111461;28;19926;-62
2022/06/30 09:58:40;;;;;;;;;;;28.10;99.90;;;;;;5102217;28;19941;-64
2022/06/30 10:01:06;;;;;;;;;;;28.20;99.90;;;;;;5105209;28;19907;-65
2022/06/30 10:03:32;;;;;;;;;;;28.40;99.90;;;;;;5105765;28;19961;-63
2022/06/30 10:06:07;;;;;;;;;;;28.30;99.90;;;;;;5105181;28;20331;-64
2022/06/30 10:08:33;;;;;;;;;;;28.30;99.90;;;;;;5109552;28;19911;-63
2022/06/30 10:10:59;;;;;;;;;;;28.30;99.90;;;;;;5105877;28;20327;-63
2022/06/30 10:13:25;;;;;;;;;;;28.20;99.90;;;;;;5107264;28;19915;-65
2022/06/30 10:15:54;;;;;;;;;;;28.10;99.90;;;;;;5109865;28;19908;-64
2022/06/30 10:18:27;;;;;;;;;;;28.10;99.90;;;;;;5106344;28;19908;-64
2022/06/30 10:20:53;;;;;;;;;;;28.00;99.90;;;;;;5110612;28;19923;-64
2022/06/30 10:23:20;;;;;;;;;;;28.00;99.90;;;;;;5106477;28;20290;-64
2022/06/30 10:25:49;;;;;;;;;;;28.10;99.90;;;;;;5110001;28;19984;-64
2022/06/30 10:28:17;;;;;;;;;;;28.30;99.90;;;;;;5105931;28;20331;-64
2022/06/30 10:31:06;;;;;;;;;;;28.20;99.90;;;;;;5107992;28;19966;-64
2022/06/30 10:33:49;;;;;;;;;;;28.20;99.90;;;;;;5097689;28;20383;-64
2022/06/30 10:36:26;;;;;;;;;;;28.20;99.90;;;;;;5112563;28;20062;-65
2022/06/30 10:39:00;;;;;;;;;;;28.40;99.90;;;;;;5113176;28;19946;-62
2022/06/30 10:41:26;;;;;;;;;;;28.50;99.90;;;;;;5113787;28;19914;-65
2022/06/30 10:44:04;;;;;;;;;;;28.20;99.90;;;;;;5115306;28;19987;-65
2022/06/30 10:46:55;;;;;;;;;;;28.10;99.90;;;;;;5114563;28;19908;-63
2022/06/30 10:49:22;;;;;;;;;;;28.20;99.90;;;;;;5096646;28;19954;-63
2022/06/30 10:51:48;;;;;;;;;;;28.20;99.90;;;;;;5115216;28;19969;-64
2022/06/30 10:54:31;;;;;;;;;;;28.20;99.90;;;;;;5113786;28;20385;-62
2022/06/30 10:56:58;;;;;;;;;;;28.20;99.90;;;;;;5105015;28;19946;-62
2022/06/30 10:59:27;;;;;;;;;;;28.40;99.90;;;;;;5105718;28;19908;-62
2022/06/30 11:02:08;;;;;;;;;;;28.30;99.90;;;;;;5109841;28;19923;-61
2022/06/30 11:04:37;;;;;;;;;;;28.20;99.90;;;;;;5111591;28;19922;-61
2022/06/30 11:07:14;;;;;;;;;;;28.20;99.90;;;;;;5110319;28;19908;-62
2022/06/30 11:09:49;;;;;;;;;;;28.30;99.90;;;;;;5107943;28;19960;-63
2022/06/30 11:12:16;;;;;;;;;;;28.30;99.90;;;;;;5108442;28;19912;-62
2022/06/30 11:14:46;;;;;;;;;;;28.30;99.90;;;;;;5109748;28;20009;-63
2022/06/30 11:17:15;;;;;;;;;;;28.20;99.90;;;;;;5105695;28;19908;-63
2022/06/30 11:19:41;;;;;;;;;;;28.10;99.90;;;;;;5108416;28;19951;-64
2022/06/30 11:22:07;;;;;;;;;;;28.10;99.90;;;;;;5105177;28;19935;-63
2022/06/30 11:24:36;;;;;;;;;;;28.20;99.90;;;;;;5106246;28;19908;-64
2022/06/30 11:27:19;;;;;;;;;;;28.50;99.90;;;;;;5103099;28;19908;-64
2022/06/30 11:29:46;;;;;;;;;;;28.70;99.90;;;;;;5110763;28;19914;-63
2022/06/30 11:32:12;;;;;;;;;;;28.60;99.90;;;;;;5110587;28;19908;-62
2022/06/30 11:34:40;;;;;;;;;;;28.50;99.90;;;;;;5105294;28;19914;-64
2022/06/30 11:37:09;;;;;;;;;;;28.30;99.90;;;;;;5109690;28;19907;-64
2022/06/30 11:39:35;;;;;;;;;;;28.10;99.90;;;;;;5108561;28;19914;-62
2022/06/30 11:42:06;;;;;;;;;;;28.20;99.90;;;;;;5112507;28;20290;-63
2022/06/30 11:44:33;;;;;;;;;;;28.20;99.90;;;;;;5111737;28;19904;-62
2022/06/30 11:47:03;;;;;;;;;;;28.30;99.90;;;;;;5109022;28;19912;-63
2022/06/30 11:49:40;;;;;;;;;;;28.20;99.90;;;;;;5107118;28;19976;-64
2022/06/30 11:52:31;;;;;;;;;;;28.10;99.90;;;;;;5108480;28;19998;-63
2022/06/30 11:54:58;;;;;;;;;;;28.10;99.90;;;;;;5099627;28;19930;-62
2022/06/30 11:57:25;;;;;;;;;;;28.10;99.90;;;;;;5111204;28;19908;-62
2022/06/30 11:59:55;;;;;;;;;;;27.90;99.90;;;;;;5100629;28;19915;-61
2022/06/30 12:02:20;;;;;;;;;;;27.70;99.90;;;;;;5110508;28;19998;-61
2022/06/30 12:04:50;;;;;;;;;;;27.50;99.90;;;;;;5112233;28;19982;-61
2022/06/30 12:07:16;;;;;;;;;;;27.60;99.90;;;;;;5106448;28;20357;-62
2022/06/30 12:09:42;;;;;;;;;;;28.00;99.90;;;;;;5111205;28;19933;-61
2022/06/30 12:12:09;;;;;;;;;;;28.00;99.90;;;;;;5109328;28;19912;-62
2022/06/30 12:14:36;;;;;;;;;;;28.00;99.90;;;;;;5110934;28;19915;-63
2022/06/30 12:17:04;;;;;;;;;;;28.00;99.90;;;;;;5111106;28;20365;-61
2022/06/30 12:19:29;;;;;;;;;;;28.00;99.90;;;;;;5112834;28;19908;-63
2022/06/30 12:21:55;;;;;;;;;;;27.70;99.90;;;;;;5107645;28;19908;-63
2022/06/30 12:24:24;;;;;;;;;;;27.90;99.90;;;;;;5107497;28;19917;-65
2022/06/30 12:26:50;;;;;;;;;;;27.90;99.90;;;;;;5101765;28;19912;-62
2022/06/30 12:29:15;;;;;;;;;;;27.90;99.90;;;;;;5110408;28;19916;-63
2022/06/30 12:31:41;;;;;;;;;;;27.80;99.90;;;;;;5109654;28;19921;-63
2022/06/30 12:34:07;;;;;;;;;;;27.80;99.90;;;;;;5112113;28;19903;-63
2022/06/30 12:36:33;;;;;;;;;;;27.80;99.90;;;;;;5103960;28;20377;-61
2022/06/30 12:39:13;;;;;;;;;;;28.00;99.90;;;;;;5107266;28;19907;-62
2022/06/30 12:41:38;;;;;;;;;;;28.10;99.90;;;;;;5109324;28;19907;-63
2022/06/30 12:44:04;;;;;;;;;;;28.10;99.90;;;;;;5106767;27;19904;-62
2022/06/30 12:46:40;;;;;;;;;;;28.10;99.90;;;;;;5108003;28;19907;-62
2022/06/30 12:49:05;;;;;;;;;;;28.20;99.90;;;;;;5110464;28;19907;-63
2022/06/30 12:51:31;;;;;;;;;;;28.30;99.90;;;;;;5110856;28;19911;-61
2022/06/30 12:54:00;;;;;;;;;;;28.40;99.90;;;;;;5103144;28;19968;-64
2022/06/30 12:56:26;;;;;;;;;;;28.50;99.90;;;;;;5112974;28;19919;-61
2022/06/30 12:58:55;;;;;;;;;;;28.40;99.90;;;;;;5106061;28;19990;-63
2022/06/30 13:01:22;;;;;;;;;;;28.20;99.90;;;;;;5112281;28;20044;-62
2022/06/30 13:03:49;;;;;;;;;;;28.20;99.90;;;;;;5113197;28;19903;-63
2022/06/30 13:06:15;;;;;;;;;;;28.10;99.90;;;;;;5112723;28;19908;-63
2022/06/30 13:08:43;;;;;;;;;;;28.20;99.90;;;;;;5112639;28;20575;-62
2022/06/30 13:11:08;;;;;;;;;;;28.30;99.90;;;;;;5112078;28;19903;-63
2022/06/30 13:13:34;;;;;;;;;;;28.40;99.90;;;;;;5109877;28;20320;-62
2022/06/30 13:15:59;;;;;;;;;;;28.40;99.90;;;;;;5111860;28;19907;-63
2022/06/30 13:18:25;;;;;;;;;;;28.30;99.90;;;;;;5107564;28;19929;-62
2022/06/30 13:20:51;;;;;;;;;;;28.40;99.90;;;;;;5111735;28;19908;-60
2022/06/30 13:23:16;;;;;;;;;;;28.50;99.90;;;;;;5109850;28;19903;-62
2022/06/30 13:25:42;;;;;;;;;;;28.30;99.90;;;;;;5111830;28;19946;-62
2022/06/30 13:28:07;;;;;;;;;;;28.30;99.90;;;;;;5110943;28;19956;-63
2022/06/30 13:30:33;;;;;;;;;;;28.20;99.90;;;;;;5105342;28;19904;-63
2022/06/30 13:32:59;;;;;;;;;;;28.10;99.90;;;;;;5110269;28;19922;-62
2022/06/30 13:35:24;;;;;;;;;;;28.30;99.90;;;;;;5111652;28;20491;-63
2022/06/30 13:37:50;;;;;;;;;;;28.10;99.90;;;;;;5111719;28;19903;-62
2022/06/30 13:40:16;;;;;;;;;;;28.20;99.90;;;;;;5110112;28;20313;-62
2022/06/30 13:42:41;;;;;;;;;;;28.30;99.90;;;;;;5111541;28;19925;-62
2022/06/30 13:45:07;;;;;;;;;;;28.00;99.90;;;;;;5111685;28;19908;-64
2022/06/30 13:47:32;;;;;;;;;;;28.00;99.90;;;;;;5110011;28;19908;-62
2022/06/30 13:49:58;;;;;;;;;;;28.20;99.90;;;;;;5110408;28;19915;-64
2022/06/30 13:52:24;;;;;;;;;;;28.30;99.90;;;;;;5107589;28;19912;-62
2022/06/30 13:54:50;;;;;;;;;;;28.10;99.90;;;;;;5107451;28;19960;-63
2022/06/30 13:57:16;;;;;;;;;;;28.30;99.90;;;;;;5104257;28;19992;-62
2022/06/30 13:59:41;;;;;;;;;;;28.30;99.90;;;;;;5111311;28;19911;-63
2022/06/30 14:02:07;;;;;;;;;;;28.20;99.90;;;;;;5111642;28;20266;-63
2022/06/30 14:04:34;;;;;;;;;;;27.90;99.90;;;;;;5109836;28;19930;-62
2022/06/30 14:07:02;;;;;;;;;;;28.10;99.90;;;;;;5111266;28;19903;-63
2022/06/30 14:09:27;;;;;;;;;;;28.20;99.90;;;;;;5110628;28;19930;-63
2022/06/30 14:11:53;;;;;;;;;;;28.00;99.90;;;;;;5111432;28;20006;-63
2022/06/30 14:14:19;;;;;;;;;;;28.20;99.90;;;;;;5110177;28;19937;-63
2022/06/30 14:16:45;;;;;;;;;;;28.30;99.90;;;;;;5112539;28;19949;-63
2022/06/30 14:19:12;;;;;;;;;;;28.40;99.90;;;;;;5111135;28;19908;-64
2022/06/30 14:21:38;;;;;;;;;;;28.50;99.90;;;;;;5110959;28;20018;-62
2022/06/30 14:24:04;;;;;;;;;;;28.70;99.90;;;;;;5109249;28;20373;-65